createdAt,value
2023-02-17T00:23:59.881Z,9814
2023-02-17T00:54:00.593Z,18460
2023-02-17T01:24:02.289Z,13546
2023-02-17T01:54:04.335Z,8460
2023-02-17T02:24:05.606Z,6540
2023-02-17T02:54:06.926Z,8055
2023-02-17T03:24:07.130Z,6923
2023-02-17T03:54:08.249Z,6851
2023-02-17T04:24:09.913Z,10378
2023-02-17T04:54:11.089Z,4160
2023-02-17T05:24:11.430Z,6528
2023-02-17T05:54:12.618Z,6967
2023-02-17T06:24:13.229Z,8688
2023-02-17T06:54:14.441Z,8702
2023-02-17T07:24:15.431Z,3740
2023-02-17T07:54:17.981Z,2334
2023-02-17T08:24:20.707Z,2839
2023-02-17T08:54:24.713Z,687
2023-02-17T09:41:52.334Z,430
2023-02-17T10:11:56.403Z,478
2023-02-17T10:41:56.546Z,425
2023-02-17T11:11:59.488Z,507
2023-02-17T11:41:59.888Z,565
2023-02-17T12:12:01.829Z,438
2023-02-17T12:42:02.845Z,422
2023-02-17T13:02:10.213Z,420
2023-02-17T13:32:12.052Z,453
2023-02-17T13:32:14.444Z,452
2023-02-17T13:32:16.498Z,455
2023-02-17T13:32:18.417Z,458
2023-02-17T13:32:20.466Z,464
2023-02-17T13:32:32.870Z,508
2023-02-17T14:05:22.910Z,388
2023-02-17T14:35:25.000Z,524
2023-02-17T15:05:25.736Z,732
2023-02-17T15:35:27.880Z,710
2023-02-17T16:05:29.380Z,747
2023-02-17T16:35:30.877Z,1497
2023-02-17T17:05:32.073Z,1096
2023-02-17T17:35:32.337Z,1435
2023-02-17T18:05:34.000Z,6906
2023-02-17T18:35:35.480Z,934
2023-02-17T19:05:37.370Z,1884
2023-02-17T19:35:38.284Z,2093
2023-02-17T20:05:40.184Z,5804
2023-02-17T20:35:40.935Z,420
2023-02-17T21:05:42.498Z,462
2023-02-17T21:35:44.065Z,454
2023-02-17T22:05:44.142Z,1174
2023-02-17T22:35:46.361Z,665
2023-02-17T23:05:48.237Z,463
2023-02-17T23:35:48.609Z,590
